Impacts TAF Board INFO
FOR SITUATIONAL AWARENESS. NOT TO BE USED FOR FLIGHT PLANNING PURPOSES.
IDs:

KSLC - Salt Lake City Intl, UT, US

Issued at 2102 UTC 25 May 2018
Updated at 2225 UTC 25 May 2018
Potential Impact None Slight Moderate High
Time2154Z 25/23Z 26/00Z 26/01Z 26/02Z 26/03Z 26/04Z 26/05Z 26/06Z 26/07Z 26/08Z 26/09Z 26/10Z 26/11Z>>
Type OBS PRVL PRVL PRVL PRVL PRVL PRVL PRVL PRVL PRVL PRVL PRVL PRVL PRVL
VIS 10 >6 >6 >6 >6 >6 >6 >6 >6 >6 >6 >6 >6 >6
CIG -- -- -- -- -- -- -- -- -- -- -- -- -- --
Cover FEW SKC SKC SKC SKC SKC SKC SKC SKC SKC SKC SKC SKC SKC
FltCat VFR VFR VFR VFR VFR VFR VFR VFR VFR VFR VFR VFR VFR VFR
WX -- -- -- -- -- -- -- -- -- -- -- -- -- --
WDir 150 330 330 330 330 150 150 150 150 150 150 150 150 150
WSpd 7 8 8 8 8 11 11 11 11 11 11 11 11 11
WGst -- -- -- -- -- -- -- -- -- -- -- -- -- --

Raw TAF
KSLC 252102Z 2521/2624 17011G17KT P6SM SKC
  FM252200 33008KT P6SM SKC
  FM260300 15011KT P6SM SKC


Raw METAR
KSLC 252154Z 15007KT 10SM FEW085 32/M01 A2986 RMK AO2 SLP057 T03171006
KSLC 252054Z 15010G17KT 10SM FEW085 FEW200 31/01 A2989
KSLC 251954Z 10SM FEW085 FEW200 31/01 A2991

METAR Board
Radar Display
Forecast Discussion

FOR SITUATIONAL AWARENESS. NOT TO BE USED FOR FLIGHT PLANNING PURPOSES.